Ragersville, Ohio
Current Conditions -  °F | °C
As of 7:53 AM on Sunday 21 Dec 2014 (Local Time) from KPHD Reporting Station
Overcast Overcast  
Wind Chill: -1°   Ceiling: 2400
Heat Index: -1°   Visibility: 8mi
Dew Point: -4°   Wind: 0mph
Humidity: 79%   Direction: NA
Pressure: 30.32"   Gusts: NA
Location:  40.5178°N, 81.673°W
Report Text: KPHD 211253Z AUTO 00000KT 8SM OVC024 M01/M04 A3032 RMK AO2 SLP279 T10111044
Loading
Personal Weather Stations






























Interactive Weather Map New forecast layout! Learn more

10-Day Weather Forecast

Advertisements
Track Severe Weather on mobile